createdAt,value
2022-08-27T00:02:20.257Z,101986.66
2022-08-27T00:04:48.926Z,101991.34
2022-08-27T00:07:17.856Z,101982.88
2022-08-27T00:09:46.372Z,101968.38
2022-08-27T00:12:15.031Z,101967.63
2022-08-27T00:14:43.475Z,101964.00
2022-08-27T00:17:13.513Z,101959.00
2022-08-27T00:19:42.497Z,101960.84
2022-08-27T00:22:12.006Z,101956.16
2022-08-27T00:24:44.637Z,101949.22
2022-08-27T00:27:18.217Z,101951.47
2022-08-27T00:29:47.101Z,101946.44
2022-08-27T00:32:17.616Z,101937.19
2022-08-27T00:34:46.295Z,101930.44
2022-08-27T00:37:15.677Z,101915.03
2022-08-27T00:39:44.212Z,101910.66
2022-08-27T00:42:13.303Z,101908.28
2022-08-27T00:44:41.751Z,101907.53
2022-08-27T00:47:14.565Z,101898.25
2022-08-27T00:49:48.888Z,101895.44
2022-08-27T00:52:21.934Z,101904.41
2022-08-27T00:54:52.917Z,101902.81
2022-08-27T00:57:22.124Z,101897.16
2022-08-27T00:59:50.624Z,101894.97
2022-08-27T01:02:22.007Z,101887.59
2022-08-27T01:04:55.267Z,101876.28
2022-08-27T01:07:28.653Z,101882.69
2022-08-27T01:10:02.362Z,101879.28
2022-08-27T01:12:32.910Z,101878.97
2022-08-27T01:15:04.771Z,101882.28
2022-08-27T01:17:33.701Z,101879.75
2022-08-27T01:20:08.892Z,101895.44
2022-08-27T01:22:45.518Z,101897.19
2022-08-27T01:25:18.269Z,101904.72
2022-08-27T01:27:48.298Z,101913.38
2022-08-27T01:30:19.979Z,101915.88
2022-08-27T01:32:49.682Z,101919.03
2022-08-27T01:35:19.546Z,101915.72
2022-08-27T01:37:52.258Z,101915.09
2022-08-27T01:40:23.383Z,101914.75
2022-08-27T01:42:54.454Z,101923.91
2022-08-27T01:45:26.736Z,101930.50
2022-08-27T01:47:55.522Z,101936.16
2022-08-27T01:50:27.166Z,101950.91
2022-08-27T01:52:56.756Z,101945.44
2022-08-27T01:55:27.704Z,101952.78
2022-08-27T01:57:56.987Z,101957.53
2022-08-27T02:00:28.912Z,101962.22
2022-08-27T02:02:58.426Z,101966.59
2022-08-27T02:05:28.237Z,101976.53
2022-08-27T02:07:57.568Z,101976.53
2022-08-27T02:10:30.664Z,101988.78
2022-08-27T02:13:00.204Z,101990.50
2022-08-27T02:15:29.731Z,102002.13
2022-08-27T02:17:58.469Z,101998.19
2022-08-27T02:20:29.185Z,102000.25
2022-08-27T02:22:58.190Z,101998.34
2022-08-27T02:25:28.945Z,101998.81
2022-08-27T02:28:00.694Z,102006.06
2022-08-27T02:30:31.968Z,102000.69
2022-08-27T02:33:00.979Z,102006.34
2022-08-27T02:35:31.206Z,102004.31
2022-08-27T02:38:00.489Z,102002.59
2022-08-27T02:40:30.709Z,101997.38
2022-08-27T02:42:59.300Z,101980.41
2022-08-27T02:45:27.958Z,101982.66
2022-08-27T02:47:56.769Z,101975.09
2022-08-27T02:50:27.460Z,101979.81
2022-08-27T02:52:56.334Z,101958.44
2022-08-27T02:55:24.815Z,101960.34
2022-08-27T02:57:54.816Z,101966.94
2022-08-27T03:00:25.497Z,101957.84
2022-08-27T03:02:54.158Z,101961.28
2022-08-27T03:05:23.560Z,101955.00
2022-08-27T03:07:52.072Z,101957.38
2022-08-27T03:10:22.470Z,101949.38
2022-08-27T03:12:51.059Z,101950.91
2022-08-27T03:15:21.203Z,101950.59
2022-08-27T03:18:07.452Z,101955.34
2022-08-27T03:20:40.784Z,101953.59
2022-08-27T03:23:09.454Z,101962.53
2022-08-27T03:25:38.524Z,101958.63
2022-08-27T03:28:18.735Z,101959.72
2022-08-27T03:30:53.963Z,101971.34
2022-08-27T03:33:23.219Z,101965.06
2022-08-27T03:35:52.203Z,101969.47
2022-08-27T03:38:20.873Z,101960.03
2022-08-27T03:40:50.351Z,101954.06
2022-08-27T03:43:21.385Z,101954.06
2022-08-27T03:46:01.576Z,101953.75
2022-08-27T03:48:34.133Z,101953.16
2022-08-27T03:51:06.871Z,101945.59
2022-08-27T03:53:36.705Z,101955.34
2022-08-27T03:56:06.350Z,101955.50
2022-08-27T03:58:35.813Z,101949.97
2022-08-27T04:01:05.285Z,101941.50
2022-08-27T04:03:36.314Z,101941.50
2022-08-27T04:06:05.392Z,101945.91
2022-08-27T04:08:33.879Z,101956.25
2022-08-27T04:11:06.486Z,101950.59
2022-08-27T04:13:35.004Z,101953.16
2022-08-27T04:16:06.288Z,101957.69
2022-08-27T04:18:36.212Z,101945.28
2022-08-27T04:21:09.467Z,101949.06
2022-08-27T04:23:38.638Z,101949.97
2022-08-27T04:26:07.705Z,101953.75
2022-08-27T04:28:38.771Z,101970.72
2022-08-27T04:31:13.890Z,101969.31
2022-08-27T04:33:50.776Z,101969.00
2022-08-27T04:36:20.513Z,101987.06
2022-08-27T04:38:49.088Z,101989.88
2022-08-27T04:41:21.238Z,101988.63
2022-08-27T04:43:51.217Z,101979.97
2022-08-27T04:46:24.563Z,101987.66
2022-08-27T04:48:54.801Z,101992.38
2022-08-27T04:51:23.253Z,101987.06
2022-08-27T04:53:52.062Z,101987.34
2022-08-27T04:56:22.298Z,101989.84
2022-08-27T04:58:51.682Z,101978.72
2022-08-27T05:01:22.456Z,101979.50
2022-08-27T05:03:51.259Z,101978.56
2022-08-27T05:06:22.327Z,101977.16
2022-08-27T05:08:52.172Z,101969.94
2022-08-27T05:11:21.857Z,101973.22
2022-08-27T05:13:51.273Z,101966.94
2022-08-27T05:16:21.979Z,101958.44
2022-08-27T05:18:52.240Z,101961.91
2022-08-27T05:21:24.524Z,101964.44
2022-08-27T05:23:54.668Z,101959.41
2022-08-27T05:26:23.395Z,101952.19
2022-08-27T05:28:52.467Z,101957.53
2022-08-27T05:31:22.114Z,101937.75
2022-08-27T05:33:51.007Z,101925.97
2022-08-27T05:36:22.765Z,101930.19
2022-08-27T05:38:51.436Z,101925.16
2022-08-27T05:41:21.885Z,101916.69
2022-08-27T05:43:50.804Z,101910.41
2022-08-27T05:46:22.312Z,101916.22
2022-08-27T05:48:51.826Z,101917.00
2022-08-27T05:51:25.633Z,101923.13
2022-08-27T05:53:57.709Z,101926.75
2022-08-27T05:56:30.644Z,101921.38
2022-08-27T05:59:16.475Z,101923.13
2022-08-27T06:01:47.030Z,101910.69
2022-08-27T06:04:17.790Z,101897.78
2022-08-27T06:06:50.024Z,101900.19
2022-08-27T06:09:20.617Z,101889.66
2022-08-27T06:11:49.624Z,101884.00
2022-08-27T06:14:18.242Z,101886.22
2022-08-27T06:16:46.820Z,101879.59
2022-08-27T06:19:15.849Z,101869.88
2022-08-27T06:21:44.942Z,101879.94
2022-08-27T06:24:15.236Z,101880.25
2022-08-27T06:26:44.764Z,101854.97
2022-08-27T06:29:14.497Z,101841.56
2022-08-27T06:31:43.493Z,101830.59
2022-08-27T06:34:12.799Z,101821.03
2022-08-27T06:36:43.157Z,101816.88
2022-08-27T06:39:13.822Z,101793.16
2022-08-27T06:41:44.405Z,101791.47
2022-08-27T06:44:14.313Z,101779.44
2022-08-27T06:46:43.568Z,101779.19
2022-08-27T06:49:13.273Z,101776.84
2022-08-27T06:51:45.816Z,101780.47
2022-08-27T06:54:16.060Z,101767.78
2022-08-27T06:56:46.005Z,101784.25
2022-08-27T06:59:18.545Z,101771.78
2022-08-27T07:01:51.385Z,101780.34
2022-08-27T07:04:22.636Z,101778.56
2022-08-27T07:06:59.412Z,101779.25
2022-08-27T07:09:30.609Z,101778.25
2022-08-27T07:12:01.690Z,101778.81
2022-08-27T07:14:35.613Z,101775.09
2022-08-27T07:17:10.988Z,101758.59
2022-08-27T07:19:40.788Z,101756.06
2022-08-27T07:22:10.879Z,101741.56
2022-08-27T07:24:39.343Z,101744.50
2022-08-27T07:27:09.924Z,101746.22
2022-08-27T07:29:38.433Z,101740.00
2022-08-27T07:32:07.291Z,101731.66
2022-08-27T07:34:35.873Z,101720.91
2022-08-27T07:37:04.874Z,101702.97
2022-08-27T07:39:33.557Z,101711.16
2022-08-27T07:42:19.456Z,101710.38
2022-08-27T07:44:49.960Z,101690.06
2022-08-27T07:47:18.785Z,101683.97
2022-08-27T07:49:47.760Z,101682.44
2022-08-27T07:52:17.671Z,101681.84
2022-08-27T07:54:46.182Z,101670.28
2022-08-27T07:57:14.710Z,101664.81
2022-08-27T07:59:43.210Z,101662.81
2022-08-27T08:02:13.841Z,101669.72
2022-08-27T08:04:42.736Z,101673.09
2022-08-27T08:07:11.714Z,101693.88
2022-08-27T08:09:40.368Z,101680.38
2022-08-27T08:12:08.969Z,101676.56
2022-08-27T08:14:37.753Z,101664.81
2022-08-27T08:17:10.585Z,101678.84
2022-08-27T08:19:41.155Z,101685.13
2022-08-27T08:22:10.055Z,101673.47
2022-08-27T08:24:38.719Z,101684.47
2022-08-27T08:27:07.988Z,101680.09
2022-08-27T08:29:37.549Z,101689.84
2022-08-27T08:32:07.368Z,101686.91
2022-08-27T08:34:36.849Z,101702.38
2022-08-27T08:37:07.849Z,101719.56
2022-08-27T08:39:36.968Z,101729.13
2022-08-27T08:42:07.735Z,101727.19
2022-08-27T08:44:43.082Z,101721.22
2022-08-27T08:47:15.592Z,101737.06
2022-08-27T08:49:50.639Z,101738.19
2022-08-27T08:52:32.157Z,101732.44
2022-08-27T08:55:10.037Z,101728.75
2022-08-27T08:57:44.512Z,101718.22
2022-08-27T09:00:14.858Z,101731.09
2022-08-27T09:02:53.309Z,101722.50
2022-08-27T09:05:27.361Z,101728.84
2022-08-27T09:08:31.872Z,101710.78
2022-08-27T09:11:00.508Z,101701.47
2022-08-27T09:13:34.590Z,101688.41
2022-08-27T09:16:05.447Z,101698.03
2022-08-27T09:18:37.849Z,101694.50
2022-08-27T09:21:17.298Z,101694.53
2022-08-27T09:24:05.909Z,101697.34
2022-08-27T09:26:37.766Z,101708.41
2022-08-27T09:29:20.296Z,101697.81
2022-08-27T09:31:55.906Z,101690.38
2022-08-27T09:37:01.211Z,101696.84
2022-08-27T09:39:36.237Z,101701.06
2022-08-27T09:42:05.952Z,101708.88
2022-08-27T09:44:47.355Z,101702.88
2022-08-27T09:47:17.717Z,101688.84
2022-08-27T09:49:47.426Z,101679.56
2022-08-27T09:52:32.202Z,101658.81
2022-08-27T09:55:08.339Z,101661.03
2022-08-27T09:57:41.819Z,101658.22
2022-08-27T10:00:16.859Z,101646.31
2022-08-27T10:02:54.112Z,101636.78
2022-08-27T10:05:30.176Z,101634.97
2022-08-27T10:08:04.215Z,101633.25
2022-08-27T10:10:48.372Z,101628.84
2022-08-27T10:13:21.056Z,101631.13
2022-08-27T10:16:05.834Z,101636.34
2022-08-27T10:18:44.844Z,101626.84
2022-08-27T10:21:20.566Z,101625.44
2022-08-27T10:24:03.150Z,101619.75
2022-08-27T10:26:47.536Z,101616.28
2022-08-27T10:29:28.125Z,101604.13
2022-08-27T10:32:06.700Z,101582.84
2022-08-27T10:34:43.471Z,101579.28
2022-08-27T10:37:26.134Z,101567.63
2022-08-27T10:40:14.590Z,101581.16
2022-08-27T10:42:57.482Z,101578.56
2022-08-27T10:45:41.745Z,101579.22
2022-08-27T10:48:24.495Z,101581.75
2022-08-27T10:50:58.405Z,101577.38
2022-08-27T10:53:34.620Z,101577.81
2022-08-27T10:59:07.111Z,101583.47
2022-08-27T11:01:46.801Z,101575.63
2022-08-27T11:04:19.695Z,101576.25
2022-08-27T11:06:56.836Z,101569.88
2022-08-27T11:09:35.977Z,101558.91
2022-08-27T11:12:14.339Z,101573.91
2022-08-27T11:14:51.774Z,101565.63
2022-08-27T11:17:32.177Z,101559.59
2022-08-27T11:20:08.400Z,101562.97
2022-08-27T11:22:42.126Z,101562.09
2022-08-27T11:25:25.871Z,101571.59
2022-08-27T11:27:57.149Z,101573.72
2022-08-27T11:30:32.515Z,101582.28
2022-08-27T11:33:14.057Z,101579.06
2022-08-27T11:36:27.445Z,101570.03
2022-08-27T11:39:00.979Z,101573.91
2022-08-27T11:41:49.868Z,101565.69
2022-08-27T11:44:22.577Z,101578.66
2022-08-27T11:46:56.629Z,101576.06
2022-08-27T11:49:31.147Z,101574.38
2022-08-27T11:52:02.953Z,101568.00
2022-08-27T11:54:33.273Z,101571.28
2022-08-27T12:00:33.830Z,101576.59
2022-08-27T12:03:05.850Z,101573.22
2022-08-27T12:05:39.064Z,101568.28
2022-08-27T12:08:28.299Z,101559.72
2022-08-27T12:11:10.225Z,101562.19
2022-08-27T12:13:45.091Z,101576.56
2022-08-27T12:16:27.526Z,101570.59
2022-08-27T12:19:18.497Z,101568.47
2022-08-27T12:22:05.264Z,101574.44
2022-08-27T12:24:50.334Z,101567.19
2022-08-27T12:28:26.651Z,101563.44
2022-08-27T12:30:58.663Z,101560.09
2022-08-27T12:33:33.348Z,101555.81
2022-08-27T12:36:11.876Z,101553.50
2022-08-27T12:38:50.907Z,101554.03
2022-08-27T12:41:27.963Z,101546.91
2022-08-27T12:44:05.460Z,101551.66
2022-08-27T12:46:34.739Z,101548.03
2022-08-27T12:49:26.158Z,101544.03
2022-08-27T12:51:56.668Z,101554.78
2022-08-27T12:54:39.610Z,101556.91
2022-08-27T12:57:18.570Z,101561.50
2022-08-27T13:00:15.288Z,101559.13
2022-08-27T13:02:59.876Z,101546.94
2022-08-27T13:05:37.644Z,101559.59
2022-08-27T13:08:18.850Z,101553.72
2022-08-27T13:10:47.435Z,101558.63
2022-08-27T13:13:18.704Z,101560.28
2022-08-27T13:15:49.881Z,101569.00
2022-08-27T13:18:18.896Z,101561.88
2022-08-27T13:20:53.369Z,101551.94
2022-08-27T13:23:24.970Z,101567.22
2022-08-27T13:26:03.648Z,101569.41
2022-08-27T13:28:34.251Z,101556.84
2022-08-27T13:31:03.694Z,101566.41
2022-08-27T13:33:34.691Z,101573.91
2022-08-27T13:36:04.035Z,101565.09
2022-08-27T13:38:39.782Z,101561.16
2022-08-27T13:41:11.336Z,101569.09
2022-08-27T13:43:43.398Z,101574.97
2022-08-27T13:46:16.357Z,101578.66
2022-08-27T13:48:47.089Z,101579.97
2022-08-27T13:51:16.378Z,101571.75
2022-08-27T13:54:07.149Z,101578.88
2022-08-27T13:56:38.775Z,101574.44
2022-08-27T13:59:13.231Z,101570.22
2022-08-27T14:01:45.367Z,101571.00
2022-08-27T14:04:23.448Z,101567.81
2022-08-27T14:06:52.656Z,101575.16
2022-08-27T14:09:26.310Z,101574.31
2022-08-27T14:12:03.523Z,101584.81
2022-08-27T14:14:38.591Z,101577.94
2022-08-27T14:17:20.521Z,101578.09
2022-08-27T14:19:49.631Z,101586.16
2022-08-27T14:22:19.759Z,101585.81
2022-08-27T14:24:49.896Z,101585.09
2022-08-27T14:27:20.050Z,101596.97
2022-08-27T14:29:49.616Z,101602.53
2022-08-27T14:32:19.166Z,101596.97
2022-08-27T14:34:48.463Z,101595.03
2022-08-27T14:37:17.169Z,101601.34
2022-08-27T14:39:45.860Z,101596.25
2022-08-27T14:42:17.512Z,101595.16
2022-08-27T14:44:46.234Z,101594.66
2022-08-27T14:47:16.039Z,101586.41
2022-08-27T14:49:47.512Z,101592.88
2022-08-27T14:52:16.214Z,101589.28
2022-08-27T14:54:46.067Z,101594.63
2022-08-27T14:57:16.142Z,101588.25
2022-08-27T14:59:44.589Z,101596.31
2022-08-27T15:02:30.446Z,101598.22
2022-08-27T15:05:00.152Z,101598.59
2022-08-27T15:07:29.299Z,101597.25
2022-08-27T15:09:57.845Z,101601.44
2022-08-27T15:12:28.797Z,101613.75
2022-08-27T15:14:57.321Z,101595.00
2022-08-27T15:17:34.554Z,101603.66
2022-08-27T15:20:06.466Z,101603.19
2022-08-27T15:22:36.079Z,101604.03
2022-08-27T15:25:07.764Z,101606.56
2022-08-27T15:27:39.264Z,101605.19
2022-08-27T15:30:10.620Z,101599.63
2022-08-27T15:32:42.429Z,101607.66
2022-08-27T15:35:16.446Z,101603.44
2022-08-27T15:37:46.183Z,101599.38
2022-08-27T15:40:16.787Z,101597.31
2022-08-27T15:42:47.193Z,101600.44
2022-08-27T15:45:16.067Z,101593.78
2022-08-27T15:47:44.597Z,101591.75
2022-08-27T15:50:13.405Z,101594.72
2022-08-27T15:52:43.176Z,101607.28
2022-08-27T15:55:19.859Z,101608.41
2022-08-27T15:57:50.429Z,101610.44
2022-08-27T16:00:20.220Z,101609.28
2022-08-27T16:02:49.663Z,101616.53
2022-08-27T16:05:18.528Z,101605.06
2022-08-27T16:07:47.793Z,101613.16
2022-08-27T16:10:16.881Z,101625.56
2022-08-27T16:12:46.209Z,101612.38
2022-08-27T16:15:17.391Z,101606.53
2022-08-27T16:17:46.770Z,101607.84
2022-08-27T16:20:16.861Z,101625.28
2022-08-27T16:22:46.427Z,101626.44
2022-08-27T16:25:18.426Z,101637.13
2022-08-27T16:27:47.680Z,101641.75
2022-08-27T16:30:18.838Z,101649.66
2022-08-27T16:32:49.259Z,101653.00
2022-08-27T16:35:17.870Z,101665.44
2022-08-27T16:37:46.526Z,101662.53
2022-08-27T16:40:16.345Z,101650.09
2022-08-27T16:42:47.179Z,101643.22
2022-08-27T16:45:19.166Z,101648.75
2022-08-27T16:48:05.240Z,101643.84
2022-08-27T16:50:35.032Z,101643.00
2022-08-27T16:53:07.107Z,101643.44
2022-08-27T16:55:37.595Z,101650.66
2022-08-27T16:58:10.369Z,101638.41
2022-08-27T17:00:40.514Z,101647.19
2022-08-27T17:03:09.283Z,101668.03
2022-08-27T17:05:37.902Z,101668.72
2022-08-27T17:08:11.699Z,101672.59
2022-08-27T17:10:45.676Z,101672.81
2022-08-27T17:13:16.353Z,101671.16
2022-08-27T17:15:52.077Z,101672.41
2022-08-27T17:18:22.165Z,101662.72
2022-08-27T17:20:52.176Z,101678.09
2022-08-27T17:23:24.161Z,101679.22
2022-08-27T17:25:52.661Z,101685.31
2022-08-27T17:28:21.163Z,101688.31
2022-08-27T17:30:51.333Z,101690.59
2022-08-27T17:33:23.883Z,101695.28
2022-08-27T17:35:52.521Z,101694.06
2022-08-27T17:38:21.036Z,101695.22
2022-08-27T17:40:52.361Z,101699.59
2022-08-27T17:43:21.732Z,101705.50
2022-08-27T17:45:52.636Z,101696.56
2022-08-27T17:48:26.048Z,101704.09
2022-08-27T17:50:55.301Z,101718.78
2022-08-27T17:53:23.800Z,101714.28
2022-08-27T17:55:52.482Z,101716.47
2022-08-27T17:58:21.024Z,101721.47
2022-08-27T18:00:49.451Z,101723.47
2022-08-27T18:03:21.377Z,101728.66
2022-08-27T18:05:49.794Z,101727.59
2022-08-27T18:08:18.391Z,101731.28
2022-08-27T18:10:49.350Z,101723.47
2022-08-27T18:13:18.884Z,101732.63
2022-08-27T18:15:50.301Z,101728.28
2022-08-27T18:18:19.791Z,101731.94
2022-08-27T18:20:49.719Z,101737.75
2022-08-27T18:23:20.642Z,101731.00
2022-08-27T18:25:49.430Z,101733.72
2022-08-27T18:28:19.737Z,101735.44
2022-08-27T18:30:49.071Z,101738.00
2022-08-27T18:33:18.041Z,101752.72
2022-08-27T18:35:46.677Z,101752.09
2022-08-27T18:38:18.343Z,101752.59
2022-08-27T18:40:49.769Z,101759.38
2022-08-27T18:43:22.984Z,101766.47
2022-08-27T18:45:51.477Z,101784.34
2022-08-27T18:48:22.553Z,101781.97
2022-08-27T18:50:55.574Z,101783.25
2022-08-27T18:53:27.345Z,101781.81
2022-08-27T18:55:58.521Z,101790.00
2022-08-27T18:58:28.071Z,101801.91
2022-08-27T19:01:01.510Z,101799.69
2022-08-27T19:03:34.514Z,101797.19
2022-08-27T19:06:08.945Z,101807.22
2022-08-27T19:08:41.054Z,101803.44
2022-08-27T19:11:09.592Z,101810.97
2022-08-27T19:13:38.358Z,101819.09
2022-08-27T19:16:10.019Z,101818.44
2022-08-27T19:18:43.851Z,101828.00
2022-08-27T19:21:12.939Z,101833.78
2022-08-27T19:23:43.206Z,101831.91
2022-08-27T19:26:17.118Z,101833.59
2022-08-27T19:28:46.103Z,101839.41
2022-08-27T19:31:15.673Z,101841.59
2022-08-27T19:33:45.054Z,101845.31
2022-08-27T19:36:16.229Z,101838.91
2022-08-27T19:38:47.160Z,101841.91
2022-08-27T19:41:17.017Z,101851.84
2022-08-27T19:43:46.214Z,101859.06
2022-08-27T19:46:18.151Z,101861.38
2022-08-27T19:48:46.888Z,101861.34
2022-08-27T19:51:15.445Z,101868.41
2022-08-27T19:53:45.502Z,101864.06
2022-08-27T19:56:15.175Z,101867.91
2022-08-27T19:58:44.718Z,101872.13
2022-08-27T20:01:13.779Z,101876.81
2022-08-27T20:03:42.805Z,101875.22
2022-08-27T20:06:11.817Z,101876.31
2022-08-27T20:08:40.858Z,101875.56
2022-08-27T20:11:10.806Z,101881.41
2022-08-27T20:13:50.238Z,101887.34
2022-08-27T20:16:19.559Z,101887.66
2022-08-27T20:18:48.296Z,101894.53
2022-08-27T20:21:16.994Z,101891.72
2022-08-27T20:23:45.677Z,101890.44
2022-08-27T20:26:15.559Z,101898.53
2022-08-27T20:28:44.380Z,101913.56
2022-08-27T20:31:13.138Z,101925.72
2022-08-27T20:33:41.811Z,101925.84
2022-08-27T20:36:10.603Z,101930.44
2022-08-27T20:38:39.679Z,101938.50
2022-08-27T20:41:08.534Z,101941.97
2022-08-27T20:43:38.395Z,101943.13
2022-08-27T20:46:07.200Z,101939.41
2022-08-27T20:48:38.695Z,101954.72
2022-08-27T20:51:07.814Z,101950.25
2022-08-27T20:53:36.473Z,101951.19
2022-08-27T20:56:05.129Z,101955.22
2022-08-27T20:58:50.910Z,101961.75
2022-08-27T21:01:21.331Z,101966.16
2022-08-27T21:03:51.940Z,101956.72
2022-08-27T21:06:24.975Z,101963.25
2022-08-27T21:08:54.957Z,101971.00
2022-08-27T21:11:24.000Z,101967.06
2022-08-27T21:13:56.532Z,101967.41
2022-08-27T21:16:26.978Z,101954.38
2022-08-27T21:18:55.772Z,101953.06
2022-08-27T21:21:24.378Z,101955.78
2022-08-27T21:23:52.915Z,101958.63
2022-08-27T21:26:23.026Z,101952.00
2022-08-27T21:28:55.822Z,101956.94
2022-08-27T21:31:26.782Z,101956.25
2022-08-27T21:33:55.393Z,101958.50
2022-08-27T21:36:24.404Z,101952.47
2022-08-27T21:38:52.957Z,101951.31
2022-08-27T21:41:22.680Z,101961.75
2022-08-27T21:43:51.784Z,101965.94
2022-08-27T21:46:21.076Z,101971.69
2022-08-27T21:48:58.649Z,101980.38
2022-08-27T21:51:27.956Z,101985.88
2022-08-27T21:53:56.524Z,101987.03
2022-08-27T21:56:25.061Z,101998.63
2022-08-27T21:58:53.732Z,102004.03
2022-08-27T22:01:22.489Z,102026.75
2022-08-27T22:03:52.615Z,102047.25
2022-08-27T22:06:21.288Z,102051.38
2022-08-27T22:08:50.265Z,102053.84
2022-08-27T22:11:24.013Z,102052.19
2022-08-27T22:13:52.783Z,102075.47
2022-08-27T22:16:21.560Z,102080.97
2022-08-27T22:18:54.249Z,102098.84
2022-08-27T22:21:25.775Z,102105.91
2022-08-27T22:23:54.483Z,102109.03
2022-08-27T22:26:23.304Z,102124.44
2022-08-27T22:28:51.917Z,102126.94
2022-08-27T22:31:20.870Z,102122.88
2022-08-27T22:33:49.776Z,102128.81
2022-08-27T22:36:18.499Z,102134.63
2022-08-27T22:38:48.515Z,102135.22
2022-08-27T22:41:18.597Z,102135.34
2022-08-27T22:43:47.931Z,102135.88
2022-08-27T22:46:16.733Z,102139.59
2022-08-27T22:48:45.306Z,102146.69
2022-08-27T22:51:13.826Z,102147.66
2022-08-27T22:53:42.414Z,102151.38
2022-08-27T22:56:12.500Z,102158.72
2022-08-27T22:58:45.794Z,102158.41
2022-08-27T23:01:19.030Z,102172.81
2022-08-27T23:03:47.870Z,102166.38
2022-08-27T23:06:16.473Z,102181.25
2022-08-27T23:08:45.102Z,102173.50
2022-08-27T23:11:16.190Z,102177.63
2022-08-27T23:13:45.312Z,102185.13
2022-08-27T23:16:15.793Z,102186.69
2022-08-27T23:18:45.674Z,102189.84
2022-08-27T23:21:14.262Z,102187.03
2022-08-27T23:23:42.992Z,102186.69
2022-08-27T23:26:28.889Z,102181.88
2022-08-27T23:28:58.749Z,102183.88
2022-08-27T23:31:27.454Z,102181.78
2022-08-27T23:33:57.247Z,102176.31
2022-08-27T23:36:26.199Z,102180.47
2022-08-27T23:38:54.788Z,102178.88
2022-08-27T23:41:23.506Z,102167.72
2022-08-27T23:43:52.051Z,102176.84
2022-08-27T23:46:21.955Z,102165.63
2022-08-27T23:48:50.506Z,102169.13
2022-08-27T23:51:19.061Z,102158.25
2022-08-27T23:53:48.380Z,102157.97
2022-08-27T23:56:16.909Z,102153.19
2022-08-27T23:58:45.477Z,102161.78
